X  Zamknij Lotniskowe dane METAR     EHKD De Kooy Airport
Temperatura
19°C Temperatura
14°C Punkt rosy
73% Wilgotność



Wiatr
10 M/S
22 MPH
35 KM/H
19 KTS



220°
SW
Warunki bieżące

Lekkie zachmurzenie Lekkie zachmurzenie
Ciśnienie 1006.77 (hPa) - 29.73 (inHg)
Widoczność 6 (mil) - 9.7 (km)
Lotnisko
Kod lotniska EHKD

Położenie: De Kooy Airport
Odległość: 34 (km)

Metar:
EHKD 160857Z AUTO 22019KT 190V260 9999 SCT015 SCT023 19/14 Q1007 BLU NOSIG

Czas: 16-07-2024 10:57 CEST